sensor_id;sensor_type;location;lat;lon;timestamp;pressure;altitude;pressure_sealevel;temperature;humidity
75585;BME280;64162;53.508;10.476;2024-01-10T00:00:40;103135.22;;;-2.51;64.28
75585;BME280;64162;53.508;10.476;2024-01-10T00:03:07;103125.66;;;-2.24;64.05
75585;BME280;64162;53.508;10.476;2024-01-10T00:05:40;103140.03;;;-2.26;65.22
75585;BME280;64162;53.508;10.476;2024-01-10T00:08:07;103133.41;;;-1.64;62.75
75585;BME280;64162;53.508;10.476;2024-01-10T00:10:36;103129.44;;;-2.64;66.53
75585;BME280;64162;53.508;10.476;2024-01-10T00:13:03;103118.94;;;-2.31;65.32
75585;BME280;64162;53.508;10.476;2024-01-10T00:15:30;103137.00;;;-2.60;66.65
75585;BME280;64162;53.508;10.476;2024-01-10T00:17:56;103121.19;;;-2.87;67.23
75585;BME280;64162;53.508;10.476;2024-01-10T00:20:23;103137.81;;;-2.56;64.52
75585;BME280;64162;53.508;10.476;2024-01-10T00:22:50;103124.19;;;-2.46;64.24
75585;BME280;64162;53.508;10.476;2024-01-10T00:25:19;103146.34;;;-2.66;64.19
75585;BME280;64162;53.508;10.476;2024-01-10T00:27:45;103139.78;;;-2.91;65.92
75585;BME280;64162;53.508;10.476;2024-01-10T00:30:12;103122.31;;;-2.29;64.77
75585;BME280;64162;53.508;10.476;2024-01-10T00:32:41;103125.97;;;-2.55;65.50
75585;BME280;64162;53.508;10.476;2024-01-10T00:35:08;103125.34;;;-2.80;66.58
75585;BME280;64162;53.508;10.476;2024-01-10T00:37:35;103120.16;;;-2.67;65.82
75585;BME280;64162;53.508;10.476;2024-01-10T00:40:01;103130.94;;;-2.45;65.64
75585;BME280;64162;53.508;10.476;2024-01-10T00:42:28;103123.22;;;-2.34;66.04
75585;BME280;64162;53.508;10.476;2024-01-10T00:44:55;103120.13;;;-2.62;66.19
75585;BME280;64162;53.508;10.476;2024-01-10T00:47:21;103118.19;;;-2.39;65.56
75585;BME280;64162;53.508;10.476;2024-01-10T00:49:48;103126.13;;;-2.72;66.28
75585;BME280;64162;53.508;10.476;2024-01-10T00:52:15;103132.22;;;-2.96;67.48
75585;BME280;64162;53.508;10.476;2024-01-10T00:54:41;103139.66;;;-2.76;66.33
75585;BME280;64162;53.508;10.476;2024-01-10T00:57:13;103120.19;;;-2.68;66.70
75585;BME280;64162;53.508;10.476;2024-01-10T00:59:43;103114.56;;;-3.04;67.22
75585;BME280;64162;53.508;10.476;2024-01-10T01:02:09;103113.66;;;-2.98;67.27
75585;BME280;64162;53.508;10.476;2024-01-10T01:04:36;103124.69;;;-3.07;67.62
75585;BME280;64162;53.508;10.476;2024-01-10T01:07:03;103137.16;;;-2.81;66.98
75585;BME280;64162;53.508;10.476;2024-01-10T01:09:33;103136.41;;;-2.87;66.95
75585;BME280;64162;53.508;10.476;2024-01-10T01:12:03;103119.25;;;-2.58;65.66
75585;BME280;64162;53.508;10.476;2024-01-10T01:14:31;103121.16;;;-1.99;62.54
75585;BME280;64162;53.508;10.476;2024-01-10T01:17:00;103117.16;;;-2.21;61.92
75585;BME280;64162;53.508;10.476;2024-01-10T01:19:27;103118.59;;;-1.97;61.23
75585;BME280;64162;53.508;10.476;2024-01-10T01:21:54;103135.44;;;-2.74;64.26
75585;BME280;64162;53.508;10.476;2024-01-10T01:24:23;103131.13;;;-2.62;65.56
75585;BME280;64162;53.508;10.476;2024-01-10T01:26:49;103128.75;;;-2.84;65.42
75585;BME280;64162;53.508;10.476;2024-01-10T01:29:20;103129.16;;;-3.40;67.10
75585;BME280;64162;53.508;10.476;2024-01-10T01:31:47;103125.63;;;-3.20;66.55
75585;BME280;64162;53.508;10.476;2024-01-10T01:34:13;103131.59;;;-2.26;63.45
75585;BME280;64162;53.508;10.476;2024-01-10T01:36:40;103132.91;;;-2.76;64.27
75585;BME280;64162;53.508;10.476;2024-01-10T01:39:07;103122.09;;;-2.93;63.89
75585;BME280;64162;53.508;10.476;2024-01-10T01:41:33;103126.34;;;-2.99;64.44
75585;BME280;64162;53.508;10.476;2024-01-10T01:44:00;103123.06;;;-3.14;65.13
75585;BME280;64162;53.508;10.476;2024-01-10T01:46:27;103113.13;;;-3.44;66.18
75585;BME280;64162;53.508;10.476;2024-01-10T01:48:56;103125.91;;;-3.62;66.04
75585;BME280;64162;53.508;10.476;2024-01-10T01:51:28;103114.72;;;-3.28;65.16
75585;BME280;64162;53.508;10.476;2024-01-10T01:53:58;103112.69;;;-2.82;63.28
75585;BME280;64162;53.508;10.476;2024-01-10T01:56:25;103113.63;;;-2.93;63.90
75585;BME280;64162;53.508;10.476;2024-01-10T01:58:51;103124.28;;;-2.55;62.03
75585;BME280;64162;53.508;10.476;2024-01-10T02:01:18;103128.88;;;-2.98;62.78
75585;BME280;64162;53.508;10.476;2024-01-10T02:03:47;103130.41;;;-2.77;61.81
75585;BME280;64162;53.508;10.476;2024-01-10T02:06:17;103128.91;;;-3.03;61.90
75585;BME280;64162;53.508;10.476;2024-01-10T02:08:45;103143.59;;;-3.59;63.76
75585;BME280;64162;53.508;10.476;2024-01-10T02:11:17;103136.84;;;-3.60;65.00
75585;BME280;64162;53.508;10.476;2024-01-10T02:13:46;103135.09;;;-3.51;64.72
75585;BME280;64162;53.508;10.476;2024-01-10T02:16:15;103140.16;;;-3.46;63.62
75585;BME280;64162;53.508;10.476;2024-01-10T02:18:42;103135.81;;;-3.23;64.08
75585;BME280;64162;53.508;10.476;2024-01-10T02:21:09;103130.63;;;-3.11;62.68
75585;BME280;64162;53.508;10.476;2024-01-10T02:23:35;103124.28;;;-2.55;62.01
75585;BME280;64162;53.508;10.476;2024-01-10T02:26:02;103118.75;;;-2.98;61.90
75585;BME280;64162;53.508;10.476;2024-01-10T02:28:32;103101.44;;;-3.66;63.34
75585;BME280;64162;53.508;10.476;2024-01-10T02:30:58;103119.69;;;-3.14;62.51
75585;BME280;64162;53.508;10.476;2024-01-10T02:33:29;103124.88;;;-3.31;62.48
75585;BME280;64162;53.508;10.476;2024-01-10T02:35:55;103122.84;;;-2.86;60.81
75585;BME280;64162;53.508;10.476;2024-01-10T02:38:22;103131.69;;;-3.42;62.52
75585;BME280;64162;53.508;10.476;2024-01-10T02:40:50;103113.84;;;-3.27;62.96
75585;BME280;64162;53.508;10.476;2024-01-10T02:43:16;103123.09;;;-3.18;63.78
75585;BME280;64162;53.508;10.476;2024-01-10T02:45:44;103127.94;;;-2.89;62.84
75585;BME280;64162;53.508;10.476;2024-01-10T02:48:11;103117.34;;;-3.46;64.28
75585;BME280;64162;53.508;10.476;2024-01-10T02:50:37;103106.50;;;-3.65;65.68
75585;BME280;64162;53.508;10.476;2024-01-10T02:53:05;103118.28;;;-3.59;65.80
75585;BME280;64162;53.508;10.476;2024-01-10T02:55:32;103124.28;;;-3.78;65.92
75585;BME280;64162;53.508;10.476;2024-01-10T02:58:02;103117.50;;;-3.73;66.72
75585;BME280;64162;53.508;10.476;2024-01-10T03:00:28;103106.44;;;-3.54;65.24
75585;BME280;64162;53.508;10.476;2024-01-10T03:02:55;103127.53;;;-3.57;65.05
75585;BME280;64162;53.508;10.476;2024-01-10T03:05:27;103105.56;;;-3.52;65.07
75585;BME280;64162;53.508;10.476;2024-01-10T03:07:54;103117.44;;;-3.58;65.61
75585;BME280;64162;53.508;10.476;2024-01-10T03:10:26;103106.31;;;-3.36;65.24
75585;BME280;64162;53.508;10.476;2024-01-10T03:12:52;103105.72;;;-2.57;61.93
75585;BME280;64162;53.508;10.476;2024-01-10T03:15:19;103097.06;;;-3.40;63.50
75585;BME280;64162;53.508;10.476;2024-01-10T03:17:49;103105.47;;;-3.36;64.49
75585;BME280;64162;53.508;10.476;2024-01-10T03:20:16;103115.59;;;-3.35;64.40
75585;BME280;64162;53.508;10.476;2024-01-10T03:22:43;103114.88;;;-3.52;65.02
75585;BME280;64162;53.508;10.476;2024-01-10T03:25:09;103120.38;;;-2.92;63.99
75585;BME280;64162;53.508;10.476;2024-01-10T03:27:39;103115.69;;;-3.50;65.52
75585;BME280;64162;53.508;10.476;2024-01-10T03:30:06;103114.13;;;-2.55;62.69
75585;BME280;64162;53.508;10.476;2024-01-10T03:32:33;103094.38;;;-2.24;60.23
75585;BME280;64162;53.508;10.476;2024-01-10T03:35:05;103108.81;;;-2.31;59.95
75585;BME280;64162;53.508;10.476;2024-01-10T03:37:32;103097.91;;;-2.37;59.73
75585;BME280;64162;53.508;10.476;2024-01-10T03:39:59;103090.13;;;-2.25;60.20
75585;BME280;64162;53.508;10.476;2024-01-10T03:42:25;103076.59;;;-2.23;59.60
75585;BME280;64162;53.508;10.476;2024-01-10T03:44:52;103093.13;;;-2.71;62.17
75585;BME280;64162;53.508;10.476;2024-01-10T03:47:20;103089.75;;;-2.67;63.06
75585;BME280;64162;53.508;10.476;2024-01-10T03:49:50;103083.75;;;-2.61;63.46
75585;BME280;64162;53.508;10.476;2024-01-10T03:52:19;103088.81;;;-1.85;61.39
75585;BME280;64162;53.508;10.476;2024-01-10T03:54:48;103092.09;;;-2.48;63.35
75585;BME280;64162;53.508;10.476;2024-01-10T03:57:15;103084.38;;;-2.41;64.09
75585;BME280;64162;53.508;10.476;2024-01-10T03:59:42;103089.06;;;-2.85;64.92
75585;BME280;64162;53.508;10.476;2024-01-10T04:02:08;103076.94;;;-2.56;64.92
75585;BME280;64162;53.508;10.476;2024-01-10T04:04:37;103077.31;;;-2.13;63.43
75585;BME280;64162;53.508;10.476;2024-01-10T04:07:04;103075.63;;;-2.95;65.16
75585;BME280;64162;53.508;10.476;2024-01-10T04:09:31;103084.63;;;-2.65;64.95
75585;BME280;64162;53.508;10.476;2024-01-10T04:11:58;103086.00;;;-2.32;63.75
75585;BME280;64162;53.508;10.476;2024-01-10T04:14:24;103088.81;;;-2.58;64.35
75585;BME280;64162;53.508;10.476;2024-01-10T04:16:53;103070.00;;;-2.39;64.42
75585;BME280;64162;53.508;10.476;2024-01-10T04:19:20;103082.28;;;-2.86;66.52
75585;BME280;64162;53.508;10.476;2024-01-10T04:21:50;103081.56;;;-3.00;67.09
75585;BME280;64162;53.508;10.476;2024-01-10T04:24:18;103078.00;;;-2.78;66.51
75585;BME280;64162;53.508;10.476;2024-01-10T04:26:45;103077.06;;;-2.68;67.60
75585;BME280;64162;53.508;10.476;2024-01-10T04:29:14;103069.94;;;-2.33;65.79
75585;BME280;64162;53.508;10.476;2024-01-10T04:31:40;103067.72;;;-2.63;67.50
75585;BME280;64162;53.508;10.476;2024-01-10T04:34:07;103068.88;;;-2.15;66.07
75585;BME280;64162;53.508;10.476;2024-01-10T04:36:34;103073.16;;;-1.54;64.82
75585;BME280;64162;53.508;10.476;2024-01-10T04:39:01;103076.88;;;-1.77;65.29
75585;BME280;64162;53.508;10.476;2024-01-10T04:41:28;103062.84;;;-1.45;64.56
75585;BME280;64162;53.508;10.476;2024-01-10T04:44:00;103074.63;;;-1.38;64.93
75585;BME280;64162;53.508;10.476;2024-01-10T04:46:28;103075.31;;;-1.87;65.65
75585;BME280;64162;53.508;10.476;2024-01-10T04:48:55;103065.56;;;-1.56;65.86
75585;BME280;64162;53.508;10.476;2024-01-10T04:51:22;103063.91;;;-1.57;65.93
75585;BME280;64162;53.508;10.476;2024-01-10T04:53:49;103074.22;;;-1.69;nan
75585;BME280;64162;53.508;10.476;2024-01-10T04:56:15;103067.44;;;-1.67;66.94
75585;BME280;64162;53.508;10.476;2024-01-10T04:58:42;103065.63;;;-1.60;66.71
75585;BME280;64162;53.508;10.476;2024-01-10T05:01:09;103064.53;;;-2.05;68.63
75585;BME280;64162;53.508;10.476;2024-01-10T05:03:35;103073.88;;;-2.07;69.35
75585;BME280;64162;53.508;10.476;2024-01-10T05:06:02;103064.56;;;-2.08;69.98
75585;BME280;64162;53.508;10.476;2024-01-10T05:08:34;103072.25;;;-2.11;69.89
75585;BME280;64162;53.508;10.476;2024-01-10T05:11:01;103076.19;;;-1.89;69.73
75585;BME280;64162;53.508;10.476;2024-01-10T05:13:28;103070.31;;;-1.93;70.22
75585;BME280;64162;53.508;10.476;2024-01-10T05:15:54;103081.00;;;-1.71;69.55
75585;BME280;64162;53.508;10.476;2024-01-10T05:18:21;103078.44;;;-1.69;69.90
75585;BME280;64162;53.508;10.476;2024-01-10T05:20:48;103057.56;;;-1.88;70.74
75585;BME280;64162;53.508;10.476;2024-01-10T05:23:15;103067.72;;;-1.88;71.19
75585;BME280;64162;53.508;10.476;2024-01-10T05:25:41;103052.59;;;-1.99;71.23
75585;BME280;64162;53.508;10.476;2024-01-10T05:28:08;103062.38;;;-1.70;70.41
75585;BME280;64162;53.508;10.476;2024-01-10T05:30:34;103058.59;;;-2.03;71.75
75585;BME280;64162;53.508;10.476;2024-01-10T05:33:04;103070.75;;;-1.62;70.41
75585;BME280;64162;53.508;10.476;2024-01-10T05:35:31;103044.00;;;-1.87;71.64
75585;BME280;64162;53.508;10.476;2024-01-10T05:37:57;103056.06;;;-2.03;72.91
75585;BME280;64162;53.508;10.476;2024-01-10T05:40:24;103053.94;;;-1.72;72.39
75585;BME280;64162;53.508;10.476;2024-01-10T05:42:51;103057.84;;;-1.48;71.31
75585;BME280;64162;53.508;10.476;2024-01-10T05:45:17;103055.44;;;-1.59;72.49
75585;BME280;64162;53.508;10.476;2024-01-10T05:47:48;103066.44;;;-1.57;71.35
75585;BME280;64162;53.508;10.476;2024-01-10T05:50:15;103053.16;;;-1.20;70.46
75585;BME280;64162;53.508;10.476;2024-01-10T05:52:42;103051.00;;;-0.91;69.53
75585;BME280;64162;53.508;10.476;2024-01-10T05:55:10;103064.97;;;-1.75;71.99
75585;BME280;64162;53.508;10.476;2024-01-10T05:57:37;103057.63;;;-1.94;73.55
75585;BME280;64162;53.508;10.476;2024-01-10T06:00:06;103069.66;;;-2.08;73.90
75585;BME280;64162;53.508;10.476;2024-01-10T06:02:37;103044.06;;;-1.34;71.76
75585;BME280;64162;53.508;10.476;2024-01-10T06:05:09;103061.44;;;-1.61;71.86
75585;BME280;64162;53.508;10.476;2024-01-10T06:07:37;103066.88;;;-1.31;71.82
75585;BME280;64162;53.508;10.476;2024-01-10T06:10:04;103059.75;;;-1.07;71.43
75585;BME280;64162;53.508;10.476;2024-01-10T06:12:31;103058.13;;;-1.11;71.21
75585;BME280;64162;53.508;10.476;2024-01-10T06:14:59;103054.38;;;-1.46;72.16
75585;BME280;64162;53.508;10.476;2024-01-10T06:17:26;103063.72;;;-0.91;70.25
75585;BME280;64162;53.508;10.476;2024-01-10T06:19:52;103062.66;;;-1.32;71.82
75585;BME280;64162;53.508;10.476;2024-01-10T06:22:20;103061.63;;;-1.20;71.48
75585;BME280;64162;53.508;10.476;2024-01-10T06:24:54;103057.84;;;-1.48;72.39
75585;BME280;64162;53.508;10.476;2024-01-10T06:27:20;103060.16;;;-1.35;72.05
75585;BME280;64162;53.508;10.476;2024-01-10T06:29:47;103054.63;;;-1.61;73.19
75585;BME280;64162;53.508;10.476;2024-01-10T06:32:14;103065.66;;;-1.62;72.60
75585;BME280;64162;53.508;10.476;2024-01-10T06:34:41;103056.22;;;-1.54;72.55
75585;BME280;64162;53.508;10.476;2024-01-10T06:37:08;103059.13;;;-1.23;71.72
75585;BME280;64162;53.508;10.476;2024-01-10T06:39:35;103038.50;;;-1.05;70.94
75585;BME280;64162;53.508;10.476;2024-01-10T06:42:02;103054.47;;;-1.50;72.55
75585;BME280;64162;53.508;10.476;2024-01-10T06:44:41;103051.03;;;-1.46;72.48
75585;BME280;64162;53.508;10.476;2024-01-10T06:47:07;103054.16;;;-1.31;71.22
75585;BME280;64162;53.508;10.476;2024-01-10T06:49:34;103065.69;;;-1.65;72.75
75585;BME280;64162;53.508;10.476;2024-01-10T06:52:01;103047.38;;;-1.30;71.84
75585;BME280;64162;53.508;10.476;2024-01-10T06:54:31;103061.44;;;-1.09;71.46
75585;BME280;64162;53.508;10.476;2024-01-10T06:57:00;103060.38;;;-1.47;72.21
75585;BME280;64162;53.508;10.476;2024-01-10T06:59:27;103048.81;;;-1.67;72.63
75585;BME280;64162;53.508;10.476;2024-01-10T07:01:54;103037.50;;;-1.47;72.43
75585;BME280;64162;53.508;10.476;2024-01-10T07:04:23;103042.69;;;-1.02;70.14
75585;BME280;64162;53.508;10.476;2024-01-10T07:06:51;103043.13;;;-1.30;71.95
75585;BME280;64162;53.508;10.476;2024-01-10T07:09:18;103044.81;;;-0.76;70.04
75585;BME280;64162;53.508;10.476;2024-01-10T07:11:50;103041.28;;;-1.20;71.51
75585;BME280;64162;53.508;10.476;2024-01-10T07:14:17;103048.50;;;-1.46;71.78
75585;BME280;64162;53.508;10.476;2024-01-10T07:16:44;103047.59;;;-1.42;71.74
75585;BME280;64162;53.508;10.476;2024-01-10T07:19:13;103050.59;;;-0.70;69.08
75585;BME280;64162;53.508;10.476;2024-01-10T07:21:40;103045.06;;;-1.44;71.34
75585;BME280;64162;53.508;10.476;2024-01-10T07:24:10;103045.06;;;-1.45;71.78
75585;BME280;64162;53.508;10.476;2024-01-10T07:26:37;103042.09;;;-1.73;72.79
75585;BME280;64162;53.508;10.476;2024-01-10T07:29:03;103048.28;;;-1.34;71.50
75585;BME280;64162;53.508;10.476;2024-01-10T07:31:30;103052.63;;;-2.00;72.81
75585;BME280;64162;53.508;10.476;2024-01-10T07:34:05;103056.88;;;-0.89;69.18
75585;BME280;64162;53.508;10.476;2024-01-10T07:36:33;103047.47;;;-0.84;69.65
75585;BME280;64162;53.508;10.476;2024-01-10T07:39:00;103050.56;;;-0.67;68.81
75585;BME280;64162;53.508;10.476;2024-01-10T07:41:28;103048.97;;;-0.74;68.52
75585;BME280;64162;53.508;10.476;2024-01-10T07:43:55;103033.13;;;-0.88;68.83
75585;BME280;64162;53.508;10.476;2024-01-10T07:46:22;103034.63;;;-0.33;67.96
75585;BME280;64162;53.508;10.476;2024-01-10T07:48:49;103047.75;;;-0.53;67.67
75585;BME280;64162;53.508;10.476;2024-01-10T07:51:16;103053.00;;;-0.62;68.83
75585;BME280;64162;53.508;10.476;2024-01-10T07:53:44;103069.56;;;-0.86;69.00
75585;BME280;64162;53.508;10.476;2024-01-10T07:56:11;103059.44;;;-1.43;70.29
75585;BME280;64162;53.508;10.476;2024-01-10T07:58:40;103072.47;;;-1.09;70.01
75585;BME280;64162;53.508;10.476;2024-01-10T08:01:09;103081.47;;;-1.45;70.39
75585;BME280;64162;53.508;10.476;2024-01-10T08:04:07;103083.31;;;-0.99;70.58
75585;BME280;64162;53.508;10.476;2024-01-10T08:06:34;103090.09;;;-0.98;70.00
75585;BME280;64162;53.508;10.476;2024-01-10T08:09:03;103075.69;;;-1.53;71.24
75585;BME280;64162;53.508;10.476;2024-01-10T08:11:31;103083.47;;;-1.08;69.90
75585;BME280;64162;53.508;10.476;2024-01-10T08:13:58;103071.66;;;-0.62;68.23
75585;BME280;64162;53.508;10.476;2024-01-10T08:16:25;103094.19;;;-0.90;68.63
75585;BME280;64162;53.508;10.476;2024-01-10T08:18:53;103079.94;;;-0.51;67.66
75585;BME280;64162;53.508;10.476;2024-01-10T08:21:22;103078.19;;;-0.49;68.42
75585;BME280;64162;53.508;10.476;2024-01-10T08:23:49;103085.22;;;-0.61;67.93
75585;BME280;64162;53.508;10.476;2024-01-10T08:26:16;103075.44;;;-0.36;67.50
75585;BME280;64162;53.508;10.476;2024-01-10T08:28:42;103096.72;;;-0.88;69.16
75585;BME280;64162;53.508;10.476;2024-01-10T08:31:09;103070.41;;;-0.87;69.54
75585;BME280;64162;53.508;10.476;2024-01-10T08:33:36;103074.38;;;-0.71;68.58
75585;BME280;64162;53.508;10.476;2024-01-10T08:36:06;103087.41;;;-1.43;71.21
75585;BME280;64162;53.508;10.476;2024-01-10T08:38:33;103090.69;;;-0.84;69.67
75585;BME280;64162;53.508;10.476;2024-01-10T08:40:59;103074.53;;;-0.34;68.24
75585;BME280;64162;53.508;10.476;2024-01-10T08:43:26;103074.78;;;-1.49;71.40
75585;BME280;64162;53.508;10.476;2024-01-10T08:45:53;103086.88;;;-1.09;70.39
75585;BME280;64162;53.508;10.476;2024-01-10T08:48:19;103090.34;;;-0.64;68.47
75585;BME280;64162;53.508;10.476;2024-01-10T08:50:46;103082.50;;;-0.52;68.58
75585;BME280;64162;53.508;10.476;2024-01-10T08:53:20;103076.03;;;-0.70;68.84
75585;BME280;64162;53.508;10.476;2024-01-10T08:55:48;103071.84;;;-0.71;68.96
75585;BME280;64162;53.508;10.476;2024-01-10T08:58:18;103075.09;;;-1.15;70.46
75585;BME280;64162;53.508;10.476;2024-01-10T09:00:47;103076.09;;;-1.25;70.76
75585;BME280;64162;53.508;10.476;2024-01-10T09:03:13;103080.44;;;-0.79;69.84
75585;BME280;64162;53.508;10.476;2024-01-10T09:05:40;103074.31;;;-0.23;68.36
75585;BME280;64162;53.508;10.476;2024-01-10T09:08:08;103079.66;;;-0.83;69.14
75585;BME280;64162;53.508;10.476;2024-01-10T09:10:38;103078.47;;;-0.62;69.54
75585;BME280;64162;53.508;10.476;2024-01-10T09:13:05;103069.44;;;-0.80;69.87
75585;BME280;64162;53.508;10.476;2024-01-10T09:15:31;103081.75;;;-0.56;68.78
75585;BME280;64162;53.508;10.476;2024-01-10T09:17:59;103075.53;;;-0.43;68.62
75585;BME280;64162;53.508;10.476;2024-01-10T09:20:27;103056.19;;;-0.97;69.57
75585;BME280;64162;53.508;10.476;2024-01-10T09:22:54;103052.25;;;-0.67;69.60
75585;BME280;64162;53.508;10.476;2024-01-10T09:25:23;103065.84;;;-1.19;70.81
75585;BME280;64162;53.508;10.476;2024-01-10T09:27:56;103044.31;;;-0.98;70.97
75585;BME280;64162;53.508;10.476;2024-01-10T09:30:22;103056.44;;;-1.12;70.76
75585;BME280;64162;53.508;10.476;2024-01-10T09:32:53;103047.91;;;-0.61;69.04
75585;BME280;64162;53.508;10.476;2024-01-10T09:35:26;103042.44;;;-0.87;70.33
75585;BME280;64162;53.508;10.476;2024-01-10T09:37:55;103041.78;;;-1.00;69.99
75585;BME280;64162;53.508;10.476;2024-01-10T09:40:21;103042.47;;;-0.89;70.63
75585;BME280;64162;53.508;10.476;2024-01-10T09:42:51;103054.88;;;-0.27;68.58
75585;BME280;64162;53.508;10.476;2024-01-10T09:45:18;103045.22;;;0.28;66.58
75585;BME280;64162;53.508;10.476;2024-01-10T09:47:53;103045.84;;;-0.42;69.27
75585;BME280;64162;53.508;10.476;2024-01-10T09:50:24;103043.13;;;-1.26;70.99
75585;BME280;64162;53.508;10.476;2024-01-10T09:53:05;103034.09;;;-0.49;69.54
75585;BME280;64162;53.508;10.476;2024-01-10T09:55:36;103041.00;;;-0.11;68.15
75585;BME280;64162;53.508;10.476;2024-01-10T09:58:05;103044.41;;;-0.12;67.76
75585;BME280;64162;53.508;10.476;2024-01-10T10:00:36;103033.38;;;-0.14;68.61
75585;BME280;64162;53.508;10.476;2024-01-10T10:03:04;103036.41;;;-0.35;68.25
75585;BME280;64162;53.508;10.476;2024-01-10T10:05:34;103024.91;;;1.89;73.43
75585;BME280;64162;53.508;10.476;2024-01-10T10:08:01;103034.47;;;0.53;66.78
75585;BME280;64162;53.508;10.476;2024-01-10T10:10:29;103033.72;;;0.48;66.05
75585;BME280;64162;53.508;10.476;2024-01-10T10:12:55;103045.47;;;0.16;67.13
75585;BME280;64162;53.508;10.476;2024-01-10T10:15:25;103048.03;;;0.16;66.85
75585;BME280;64162;53.508;10.476;2024-01-10T10:17:55;103041.66;;;-0.03;67.69
75585;BME280;64162;53.508;10.476;2024-01-10T10:20:29;103049.13;;;-0.37;68.81
75585;BME280;64162;53.508;10.476;2024-01-10T10:23:05;103045.63;;;0.49;67.10
75585;BME280;64162;53.508;10.476;2024-01-10T10:25:33;103042.50;;;-0.04;67.69
75585;BME280;64162;53.508;10.476;2024-01-10T10:28:03;103048.28;;;-0.37;68.55
75585;BME280;64162;53.508;10.476;2024-01-10T10:30:31;103055.81;;;-0.31;68.69
75585;BME280;64162;53.508;10.476;2024-01-10T10:33:02;103052.53;;;-0.38;69.21
75585;BME280;64162;53.508;10.476;2024-01-10T10:35:29;103050.72;;;-0.76;69.10
75585;BME280;64162;53.508;10.476;2024-01-10T10:37:58;103042.28;;;-0.33;68.81
75585;BME280;64162;53.508;10.476;2024-01-10T10:40:25;103040.03;;;-0.50;68.85
75585;BME280;64162;53.508;10.476;2024-01-10T10:42:54;103045.13;;;-0.49;68.98
75585;BME280;64162;53.508;10.476;2024-01-10T10:45:21;103037.06;;;0.14;68.00
75585;BME280;64162;53.508;10.476;2024-01-10T10:47:59;103056.97;;;-0.46;69.40
75585;BME280;64162;53.508;10.476;2024-01-10T10:50:38;103049.91;;;1.47;65.84
75585;BME280;64162;53.508;10.476;2024-01-10T10:53:06;103048.03;;;0.16;67.43
75585;BME280;64162;53.508;10.476;2024-01-10T10:55:38;103054.69;;;0.23;67.11
75585;BME280;64162;53.508;10.476;2024-01-10T10:58:06;103051.66;;;-0.35;68.05
75585;BME280;64162;53.508;10.476;2024-01-10T11:00:34;103059.22;;;-0.32;68.34
75585;BME280;64162;53.508;10.476;2024-01-10T11:03:03;103060.66;;;-1.13;71.02
75585;BME280;64162;53.508;10.476;2024-01-10T11:05:31;103061.88;;;-0.38;69.38
75585;BME280;64162;53.508;10.476;2024-01-10T11:08:02;103054.66;;;-0.15;67.55
75585;BME280;64162;53.508;10.476;2024-01-10T11:10:32;103060.16;;;-0.36;69.15
75585;BME280;64162;53.508;10.476;2024-01-10T11:13:05;103048.16;;;0.10;67.35
75585;BME280;64162;53.508;10.476;2024-01-10T11:19:03;103051.59;;;-0.32;68.16
75585;BME280;64162;53.508;10.476;2024-01-10T11:24:31;103055.47;;;-0.15;68.16
75585;BME280;64162;53.508;10.476;2024-01-10T11:27:11;103049.13;;;-0.37;69.03
75585;BME280;64162;53.508;10.476;2024-01-10T11:29:46;103040.78;;;-0.02;68.68
75585;BME280;64162;53.508;10.476;2024-01-10T11:32:18;103029.84;;;0.31;67.10
75585;BME280;64162;53.508;10.476;2024-01-10T11:34:57;103045.53;;;0.15;67.95
75585;BME280;64162;53.508;10.476;2024-01-10T11:37:31;103038.31;;;-0.05;68.15
75585;BME280;64162;53.508;10.476;2024-01-10T11:40:09;103036.97;;;0.17;68.15
75585;BME280;64162;53.508;10.476;2024-01-10T11:42:44;103032.38;;;-0.06;68.82
75585;BME280;64162;53.508;10.476;2024-01-10T11:48:00;103028.19;;;-0.10;68.99
75585;BME280;64162;53.508;10.476;2024-01-10T11:50:30;103027.72;;;0.13;69.00
75585;BME280;64162;53.508;10.476;2024-01-10T11:52:57;103026.03;;;0.14;69.40
75585;BME280;64162;53.508;10.476;2024-01-10T11:55:47;103018.53;;;0.06;69.10
75585;BME280;64162;53.508;10.476;2024-01-10T11:58:14;103014.03;;;0.19;68.52
75585;BME280;64162;53.508;10.476;2024-01-10T12:00:40;103022.72;;;0.46;67.37
75585;BME280;64162;53.508;10.476;2024-01-10T12:03:07;103025.50;;;-0.44;70.19
75585;BME280;64162;53.508;10.476;2024-01-10T12:05:34;103026.91;;;0.11;68.85
75585;BME280;64162;53.508;10.476;2024-01-10T12:08:07;103026.03;;;-0.26;71.04
75585;BME280;64162;53.508;10.476;2024-01-10T12:10:45;103022.09;;;-0.43;70.66
75585;BME280;64162;53.508;10.476;2024-01-10T12:13:18;103016.47;;;0.23;68.40
75585;BME280;64162;53.508;10.476;2024-01-10T12:15:49;103000.69;;;0.08;69.46
75585;BME280;64162;53.508;10.476;2024-01-10T12:18:16;103001.13;;;-0.14;70.20
75585;BME280;64162;53.508;10.476;2024-01-10T12:20:42;102998.97;;;-0.30;71.01
75585;BME280;64162;53.508;10.476;2024-01-10T12:23:11;102997.78;;;0.60;68.68
75585;BME280;64162;53.508;10.476;2024-01-10T12:25:38;102986.84;;;0.19;68.53
75585;BME280;64162;53.508;10.476;2024-01-10T12:28:05;102986.00;;;0.19;68.71
75585;BME280;64162;53.508;10.476;2024-01-10T12:30:35;102989.66;;;0.78;68.26
75585;BME280;64162;53.508;10.476;2024-01-10T12:33:02;102987.22;;;0.03;69.19
75585;BME280;64162;53.508;10.476;2024-01-10T12:35:32;102983.09;;;-0.03;69.92
75585;BME280;64162;53.508;10.476;2024-01-10T12:37:59;102987.75;;;-0.23;70.10
75585;BME280;64162;53.508;10.476;2024-01-10T12:40:25;102975.41;;;-0.02;70.17
75585;BME280;64162;53.508;10.476;2024-01-10T12:43:03;102977.44;;;0.57;68.06
75585;BME280;64162;53.508;10.476;2024-01-10T12:45:30;102975.06;;;0.84;67.33
75585;BME280;64162;53.508;10.476;2024-01-10T12:47:57;102988.75;;;0.80;67.11
75585;BME280;64162;53.508;10.476;2024-01-10T12:50:24;102989.88;;;1.03;66.86
75585;BME280;64162;53.508;10.476;2024-01-10T12:52:53;102981.31;;;0.37;68.88
75585;BME280;64162;53.508;10.476;2024-01-10T12:55:26;102990.25;;;0.18;69.32